Airport View

Enter AWOS ICAO identifier for current METAR.

ex. KFNL

KTVL 051253Z AUTO 19003KT 10SM CLR 07/02 A3014 RMK AO2 SLP153 T00670022

5 Aug 2020 13:53

Frequency: 124.725

Phone: 530-541-5739

Other Area AWOS: KMEV - KCXP - KTRK - KPVF

TAF KTVL 051120Z 0512/0612 18003KT P6SM SKC FM051800 04007KT P6SM SKC FM052200 20009KT P6SM FEW080 FM060300 18003KT P6SM SKC